createdAt,value
2018-08-09T00:00:19.216Z,18.20
2018-08-09T00:02:49.107Z,18.20
2018-08-09T00:05:18.812Z,18.10
2018-08-09T00:07:49.081Z,18.10
2018-08-09T00:10:18.841Z,18.10
2018-08-09T00:12:48.504Z,18.20
2018-08-09T00:15:18.265Z,18.20
2018-08-09T00:17:47.932Z,18.20
2018-08-09T00:20:17.668Z,18.20
2018-08-09T00:22:47.722Z,18.20
2018-08-09T00:25:17.429Z,18.20
2018-08-09T00:27:47.191Z,18.30
2018-08-09T00:30:16.871Z,18.30
2018-08-09T00:32:46.940Z,18.40
2018-08-09T00:35:17.348Z,18.40
2018-08-09T00:37:47.064Z,18.30
2018-08-09T00:40:17.255Z,18.30
2018-08-09T00:42:47.440Z,18.20
2018-08-09T00:45:17.148Z,18.10
2018-08-09T00:47:46.817Z,18.10
2018-08-09T00:50:16.997Z,18.00
2018-08-09T00:52:46.684Z,17.90
2018-08-09T00:55:16.376Z,17.90
2018-08-09T00:57:46.481Z,17.80
2018-08-09T01:00:16.608Z,17.70
2018-08-09T01:02:46.349Z,17.70
2018-08-09T01:05:16.751Z,17.60
2018-08-09T01:07:46.449Z,17.50
2018-08-09T01:10:16.187Z,17.50
2018-08-09T01:12:46.061Z,17.40
2018-08-09T01:15:15.799Z,17.40
2018-08-09T01:17:45.508Z,17.30
2018-08-09T01:20:15.711Z,17.20
2018-08-09T01:22:45.412Z,17.10
2018-08-09T01:25:15.109Z,17.10
2018-08-09T01:27:44.848Z,17.10
2018-08-09T01:30:14.520Z,17.00
2018-08-09T01:32:44.969Z,17.00
2018-08-09T01:35:14.689Z,16.90
2018-08-09T01:37:44.444Z,16.90
2018-08-09T01:40:14.652Z,16.80
2018-08-09T01:42:54.844Z,16.70
2018-08-09T01:45:24.632Z,16.80
2018-08-09T01:47:54.715Z,16.70
2018-08-09T01:50:24.467Z,16.70
2018-08-09T01:52:54.440Z,16.60
2018-08-09T01:55:24.635Z,16.60
2018-08-09T01:57:54.308Z,16.60
2018-08-09T02:00:24.092Z,16.60
2018-08-09T02:02:54.697Z,16.60
2018-08-09T02:05:24.364Z,16.60
2018-08-09T02:07:54.168Z,16.60
2018-08-09T02:10:24.291Z,16.60
2018-08-09T02:12:54.006Z,16.60
2018-08-09T02:15:24.172Z,16.70
2018-08-09T02:17:53.895Z,16.70
2018-08-09T02:20:24.017Z,16.70
2018-08-09T02:22:53.740Z,16.60
2018-08-09T02:25:23.424Z,16.60
2018-08-09T02:27:53.124Z,16.60
2018-08-09T02:30:23.846Z,16.50
2018-08-09T02:32:53.971Z,16.60
2018-08-09T02:35:23.737Z,16.60
2018-08-09T02:37:53.424Z,16.60
2018-08-09T02:40:23.464Z,16.60
2018-08-09T02:42:53.140Z,16.70
2018-08-09T02:45:22.864Z,16.70
2018-08-09T02:47:52.589Z,16.70
2018-08-09T02:50:22.753Z,16.70
2018-08-09T02:52:52.749Z,16.70
2018-08-09T02:55:22.513Z,16.70
2018-08-09T02:57:52.232Z,16.70
2018-08-09T03:00:22.010Z,16.70
2018-08-09T03:02:52.004Z,16.70
2018-08-09T03:05:21.688Z,16.60
2018-08-09T03:07:51.556Z,16.60
2018-08-09T03:10:21.788Z,16.50
2018-08-09T03:12:51.512Z,16.40
2018-08-09T03:15:21.219Z,16.30
2018-08-09T03:17:51.457Z,16.30
2018-08-09T03:20:21.272Z,16.20
2018-08-09T03:22:50.960Z,16.10
2018-08-09T03:25:20.936Z,16.10
2018-08-09T03:27:50.711Z,16.00
2018-08-09T03:30:20.435Z,16.00
2018-08-09T03:32:50.522Z,16.10
2018-08-09T03:35:20.436Z,16.10
2018-08-09T03:37:50.145Z,16.20
2018-08-09T03:40:19.867Z,16.20
2018-08-09T03:42:49.572Z,16.30
2018-08-09T03:45:19.311Z,16.30
2018-08-09T03:47:49.571Z,16.40
2018-08-09T03:50:19.428Z,16.30
2018-08-09T03:52:49.131Z,16.40
2018-08-09T03:55:19.367Z,16.40
2018-08-09T03:57:49.182Z,16.40
2018-08-09T04:00:19.375Z,16.50
2018-08-09T04:02:49.076Z,16.50
2018-08-09T04:05:18.951Z,16.70
2018-08-09T04:07:49.032Z,16.50
2018-08-09T04:10:27.434Z,16.50
2018-08-09T04:13:00.521Z,16.50
2018-08-09T04:15:30.690Z,16.60
2018-08-09T04:18:00.405Z,16.60
2018-08-09T04:20:30.514Z,16.60
2018-08-09T04:23:00.283Z,16.70
2018-08-09T04:25:29.981Z,16.70
2018-08-09T04:27:59.708Z,16.90
2018-08-09T04:30:29.773Z,16.90
2018-08-09T04:32:59.575Z,17.00
2018-08-09T04:35:29.493Z,17.10
2018-08-09T04:38:01.176Z,17.20
2018-08-09T04:40:31.453Z,17.20
2018-08-09T04:43:01.133Z,17.30
2018-08-09T04:45:31.289Z,17.40
2018-08-09T04:48:01.538Z,17.50
2018-08-09T04:50:31.246Z,17.50
2018-08-09T04:53:00.931Z,17.60
2018-08-09T04:55:30.772Z,17.70
2018-08-09T04:58:00.483Z,17.80
2018-08-09T05:00:30.393Z,17.90
2018-08-09T05:03:00.739Z,18.00
2018-08-09T05:05:30.540Z,18.10
2018-08-09T05:08:00.232Z,18.20
2018-08-09T05:10:29.949Z,18.30
2018-08-09T05:12:59.859Z,18.40
2018-08-09T05:15:29.955Z,18.50
2018-08-09T05:17:59.684Z,18.60
2018-08-09T05:20:29.476Z,18.80
2018-08-09T05:22:59.621Z,18.90
2018-08-09T05:25:29.336Z,19.00
2018-08-09T05:27:59.189Z,19.10
2018-08-09T05:30:29.251Z,19.30
2018-08-09T05:32:59.147Z,19.40
2018-08-09T05:35:29.145Z,19.50
2018-08-09T05:37:59.432Z,19.60
2018-08-09T05:40:29.740Z,19.70
2018-08-09T05:43:02.478Z,19.80
2018-08-09T05:45:34.460Z,19.90
2018-08-09T05:48:04.373Z,20.10
2018-08-09T05:50:36.871Z,20.20
2018-08-09T05:53:07.554Z,20.30
2018-08-09T05:55:37.636Z,20.40
2018-08-09T05:58:11.474Z,20.50
2018-08-09T06:00:43.835Z,20.60
2018-08-09T06:03:13.565Z,20.70
2018-08-09T06:05:44.009Z,20.80
2018-08-09T06:08:13.952Z,20.90
2018-08-09T06:10:43.704Z,21.00
2018-08-09T06:13:13.508Z,21.10
2018-08-09T06:15:44.491Z,21.20
2018-08-09T06:18:14.241Z,21.30
2018-08-09T06:20:44.436Z,21.40
2018-08-09T06:23:14.160Z,21.50
2018-08-09T06:25:43.984Z,21.50
2018-08-09T06:28:14.229Z,21.60
2018-08-09T06:30:44.999Z,21.70
2018-08-09T06:33:15.091Z,21.80
2018-08-09T06:35:44.943Z,21.90
2018-08-09T06:38:15.025Z,21.90
2018-08-09T06:40:44.764Z,21.80
2018-08-09T06:43:14.505Z,22.00
2018-08-09T06:45:44.793Z,22.10
2018-08-09T06:48:14.597Z,22.10
2018-08-09T06:50:44.256Z,22.20
2018-08-09T06:53:13.968Z,22.30
2018-08-09T06:55:44.572Z,22.40
2018-08-09T06:58:14.784Z,22.50
2018-08-09T07:00:44.753Z,22.60
2018-08-09T07:03:15.410Z,22.70
2018-08-09T07:05:57.260Z,22.80
2018-08-09T07:08:27.256Z,22.90
2018-08-09T07:10:57.307Z,22.90
2018-08-09T07:13:27.202Z,22.90
2018-08-09T07:15:57.232Z,23.00
2018-08-09T07:18:27.342Z,23.00
2018-08-09T07:20:57.756Z,23.00
2018-08-09T07:23:27.872Z,23.10
2018-08-09T07:25:57.683Z,23.00
2018-08-09T07:28:27.756Z,22.90
2018-08-09T07:30:57.900Z,23.00
2018-08-09T07:33:27.664Z,23.10
2018-08-09T07:35:59.207Z,23.20
2018-08-09T07:38:30.133Z,23.40
2018-08-09T07:41:02.099Z,23.50
2018-08-09T07:43:36.008Z,23.50
2018-08-09T07:46:07.159Z,23.60
2018-08-09T07:48:37.797Z,23.60
2018-08-09T07:51:08.839Z,23.70
2018-08-09T07:53:40.886Z,23.70
2018-08-09T07:56:12.073Z,23.90
2018-08-09T07:58:41.793Z,23.90
2018-08-09T08:01:12.219Z,24.00
2018-08-09T08:03:42.388Z,24.20
2018-08-09T08:06:12.604Z,24.30
2018-08-09T08:08:42.714Z,24.40
2018-08-09T08:11:12.589Z,24.40
2018-08-09T08:13:42.951Z,24.60
2018-08-09T08:16:12.950Z,24.60
2018-08-09T08:18:43.648Z,24.60
2018-08-09T08:21:14.707Z,24.80
2018-08-09T08:23:44.738Z,24.70
2018-08-09T08:26:18.589Z,24.60
2018-08-09T08:28:52.511Z,24.70
2018-08-09T08:31:23.771Z,24.70
2018-08-09T08:34:00.308Z,24.80
2018-08-09T08:36:31.074Z,24.90
2018-08-09T08:39:01.643Z,24.80
2018-08-09T08:41:34.144Z,24.80
2018-08-09T08:44:04.331Z,25.00
2018-08-09T08:46:35.441Z,25.10
2018-08-09T08:49:05.579Z,25.20
2018-08-09T08:51:37.337Z,25.30
2018-08-09T08:54:07.140Z,25.50
2018-08-09T08:56:39.161Z,25.50
2018-08-09T08:59:09.193Z,25.50
2018-08-09T09:01:39.985Z,25.70
2018-08-09T09:04:10.958Z,25.70
2018-08-09T09:06:40.988Z,25.80
2018-08-09T09:09:13.300Z,25.80
2018-08-09T09:11:43.841Z,25.90
2018-08-09T09:14:14.248Z,26.00
2018-08-09T09:16:44.352Z,26.20
2018-08-09T09:19:14.394Z,26.20
2018-08-09T09:21:44.525Z,26.30
2018-08-09T09:24:14.361Z,26.60
2018-08-09T09:26:44.293Z,26.80
2018-08-09T09:29:13.987Z,26.90
2018-08-09T09:31:44.220Z,27.10
2018-08-09T09:34:14.045Z,27.30
2018-08-09T09:36:44.227Z,27.70
2018-08-09T09:39:14.502Z,28.00
2018-08-09T09:41:44.425Z,28.20
2018-08-09T09:44:14.397Z,28.20
2018-08-09T09:46:44.400Z,28.20
2018-08-09T09:49:15.893Z,28.30
2018-08-09T09:51:46.374Z,28.20
2018-08-09T09:54:16.960Z,27.70
2018-08-09T09:56:46.764Z,27.20
2018-08-09T09:59:16.546Z,27.30
2018-08-09T10:01:46.789Z,27.60
2018-08-09T10:04:16.737Z,28.00
2018-08-09T10:06:46.721Z,28.10
2018-08-09T10:09:16.423Z,28.10
2018-08-09T10:11:47.278Z,28.20
2018-08-09T10:14:17.275Z,28.20
2018-08-09T10:16:48.305Z,28.40
2018-08-09T10:19:18.408Z,28.40
2018-08-09T10:21:48.132Z,28.50
2018-08-09T10:24:17.812Z,28.60
2018-08-09T10:26:47.526Z,28.90
2018-08-09T10:29:17.720Z,29.00
2018-08-09T10:31:47.974Z,29.40
2018-08-09T10:34:17.645Z,29.90
2018-08-09T10:36:47.632Z,30.10
2018-08-09T10:39:17.800Z,30.10
2018-08-09T10:41:47.580Z,30.60
2018-08-09T10:44:17.804Z,30.90
2018-08-09T10:46:47.503Z,31.40
2018-08-09T10:49:17.281Z,31.50
2018-08-09T10:51:47.515Z,31.20
2018-08-09T10:54:17.220Z,30.70
2018-08-09T10:56:46.936Z,30.80
2018-08-09T10:59:16.636Z,31.00
2018-08-09T11:01:46.807Z,31.20
2018-08-09T11:04:16.536Z,30.90
2018-08-09T11:06:46.249Z,31.10
2018-08-09T11:09:16.041Z,30.80
2018-08-09T11:11:45.740Z,30.40
2018-08-09T11:14:15.748Z,30.30
2018-08-09T11:16:45.457Z,30.00
2018-08-09T11:19:15.148Z,29.90
2018-08-09T11:21:45.180Z,29.70
2018-08-09T11:24:14.918Z,29.40
2018-08-09T11:26:44.612Z,29.00
2018-08-09T11:29:14.712Z,28.80
2018-08-09T11:31:44.383Z,28.80
2018-08-09T11:34:14.075Z,28.70
2018-08-09T11:36:43.799Z,28.60
2018-08-09T11:39:13.812Z,28.50
2018-08-09T11:41:43.904Z,28.50
2018-08-09T11:44:13.639Z,28.40
2018-08-09T11:46:43.340Z,28.40
2018-08-09T11:49:13.430Z,28.60
2018-08-09T11:51:43.141Z,28.70
2018-08-09T11:54:12.824Z,28.90
2018-08-09T11:56:43.101Z,29.10
2018-08-09T11:59:12.832Z,29.30
2018-08-09T12:01:42.532Z,29.50
2018-08-09T12:04:12.841Z,29.40
2018-08-09T12:06:42.556Z,29.40
2018-08-09T12:09:16.925Z,29.30
2018-08-09T12:11:47.508Z,29.30
2018-08-09T12:14:17.693Z,29.30
2018-08-09T12:16:47.429Z,29.20
2018-08-09T12:19:17.550Z,29.00
2018-08-09T12:21:47.538Z,28.80
2018-08-09T12:24:17.449Z,28.60
2018-08-09T12:26:47.154Z,28.60
2018-08-09T12:29:25.476Z,28.90
2018-08-09T12:31:55.592Z,29.30
2018-08-09T12:34:25.372Z,30.00
2018-08-09T12:36:55.882Z,30.80
2018-08-09T12:39:25.744Z,31.40
2018-08-09T12:41:55.496Z,32.50
2018-08-09T12:44:26.116Z,33.50
2018-08-09T12:46:56.080Z,33.50
2018-08-09T12:49:25.928Z,33.50
2018-08-09T12:51:56.124Z,33.80
2018-08-09T12:54:26.134Z,33.60
2018-08-09T12:56:55.825Z,33.00
2018-08-09T12:59:26.268Z,32.50
2018-08-09T13:01:55.952Z,32.30
2018-08-09T13:04:26.565Z,32.50
2018-08-09T13:06:57.834Z,32.80
2018-08-09T13:09:29.491Z,33.50
2018-08-09T13:11:59.344Z,34.00
2018-08-09T13:14:30.097Z,34.40
2018-08-09T13:16:59.995Z,34.30
2018-08-09T13:19:30.460Z,34.60
2018-08-09T13:22:00.567Z,34.50
2018-08-09T13:24:30.276Z,34.30
2018-08-09T13:27:00.677Z,33.70
2018-08-09T13:29:32.329Z,33.30
2018-08-09T13:32:02.676Z,32.70
2018-08-09T13:34:32.804Z,32.30
2018-08-09T13:37:03.649Z,32.10
2018-08-09T13:39:34.110Z,31.90
2018-08-09T13:42:03.935Z,32.00
2018-08-09T13:44:33.968Z,31.80
2018-08-09T13:47:03.800Z,31.80
2018-08-09T13:49:48.297Z,31.80
2018-08-09T13:52:18.588Z,32.10
2018-08-09T13:54:48.864Z,32.50
2018-08-09T13:57:18.588Z,32.70
2018-08-09T13:59:48.653Z,32.60
2018-08-09T14:02:18.370Z,32.70
2018-08-09T14:04:48.328Z,32.90
2018-08-09T14:07:18.376Z,33.00
2018-08-09T14:09:48.436Z,33.30
2018-08-09T14:12:18.156Z,33.60
2018-08-09T14:14:48.439Z,34.80
2018-08-09T14:17:18.152Z,36.50
2018-08-09T14:19:47.972Z,37.60
2018-08-09T14:22:18.146Z,37.50
2018-08-09T14:24:47.950Z,37.40
2018-08-09T14:27:17.745Z,37.90
2018-08-09T14:29:48.157Z,38.70
2018-08-09T14:32:17.872Z,39.00
2018-08-09T14:34:47.568Z,39.40
2018-08-09T14:37:17.368Z,39.90
2018-08-09T14:39:47.189Z,40.40
2018-08-09T14:42:17.269Z,39.50
2018-08-09T14:44:47.220Z,39.20
2018-08-09T14:50:27.794Z,38.90
2018-08-09T14:52:58.005Z,38.20
2018-08-09T14:55:28.124Z,38.30
2018-08-09T14:57:58.495Z,37.60
2018-08-09T15:00:28.373Z,37.20
2018-08-09T15:02:58.148Z,36.90
2018-08-09T15:05:28.096Z,36.50
2018-08-09T15:07:57.912Z,36.60
2018-08-09T15:10:28.367Z,37.40
2018-08-09T15:12:58.532Z,38.30
2018-08-09T15:15:28.821Z,37.90
2018-08-09T15:17:58.896Z,37.70
2018-08-09T15:20:28.841Z,37.70
2018-08-09T15:22:59.253Z,37.40
2018-08-09T15:25:29.268Z,37.00
2018-08-09T15:27:59.105Z,37.70
2018-08-09T15:30:29.740Z,38.80
2018-08-09T15:32:59.553Z,38.90
2018-08-09T15:35:29.235Z,38.70
2018-08-09T15:37:58.991Z,38.00
2018-08-09T15:40:28.732Z,37.20
2018-08-09T15:42:58.481Z,36.50
2018-08-09T15:45:28.308Z,36.00
2018-08-09T15:47:58.622Z,35.70
2018-08-09T15:50:28.439Z,35.10
2018-08-09T15:52:58.207Z,34.20
2018-08-09T15:55:28.482Z,33.50
2018-08-09T15:57:58.253Z,33.50
2018-08-09T16:00:28.058Z,33.50
2018-08-09T16:02:58.240Z,33.60
2018-08-09T16:05:32.407Z,33.10
2018-08-09T16:08:02.200Z,32.70
2018-08-09T16:10:32.537Z,32.60
2018-08-09T16:13:12.456Z,32.40
2018-08-09T16:15:42.312Z,32.30
2018-08-09T16:18:12.404Z,32.20
2018-08-09T16:20:42.160Z,32.00
2018-08-09T16:23:11.929Z,32.10
2018-08-09T16:25:42.461Z,31.90
2018-08-09T16:28:12.401Z,31.80
2018-08-09T16:30:42.132Z,31.80
2018-08-09T16:33:11.860Z,31.70
2018-08-09T16:35:41.636Z,31.60
2018-08-09T16:38:11.931Z,31.40
2018-08-09T16:40:41.728Z,31.50
2018-08-09T16:43:11.459Z,31.50
2018-08-09T16:45:41.707Z,31.40
2018-08-09T16:48:23.277Z,31.40
2018-08-09T16:50:54.390Z,31.20
2018-08-09T16:53:24.420Z,31.10
2018-08-09T16:55:54.179Z,31.00
2018-08-09T16:58:23.870Z,30.90
2018-08-09T17:00:53.996Z,30.90
2018-08-09T17:03:23.736Z,30.80
2018-08-09T17:05:54.018Z,30.70
2018-08-09T17:08:24.849Z,30.60
2018-08-09T17:10:55.155Z,30.50
2018-08-09T17:13:24.946Z,30.50
2018-08-09T17:15:55.237Z,30.30
2018-08-09T17:18:25.026Z,30.00
2018-08-09T17:20:55.616Z,29.70
2018-08-09T17:23:25.744Z,29.40
2018-08-09T17:25:55.788Z,29.10
2018-08-09T17:28:25.632Z,27.90
2018-08-09T17:30:55.899Z,26.40
2018-08-09T17:33:28.580Z,24.80
2018-08-09T17:35:59.651Z,23.60
2018-08-09T17:38:30.120Z,22.90
2018-08-09T17:40:59.954Z,22.50
2018-08-09T17:43:29.826Z,22.30
2018-08-09T17:46:00.001Z,22.10
2018-08-09T17:48:29.785Z,21.90
2018-08-09T17:50:59.500Z,21.80
2018-08-09T17:53:29.577Z,21.80
2018-08-09T17:55:59.445Z,21.80
2018-08-09T17:58:31.341Z,21.80
2018-08-09T18:01:01.484Z,21.90
2018-08-09T18:03:31.580Z,21.90
2018-08-09T18:06:01.432Z,22.00
2018-08-09T18:08:31.564Z,21.90
2018-08-09T18:11:01.356Z,21.90
2018-08-09T18:13:31.117Z,22.00
2018-08-09T18:16:01.176Z,22.20
2018-08-09T18:18:30.934Z,22.30
2018-08-09T18:21:00.668Z,22.70
2018-08-09T18:23:30.812Z,23.10
2018-08-09T18:26:00.551Z,23.50
2018-08-09T18:28:30.244Z,23.80
2018-08-09T18:31:00.082Z,24.10
2018-08-09T18:33:29.905Z,24.20
2018-08-09T18:35:59.724Z,24.10
2018-08-09T18:38:29.430Z,23.90
2018-08-09T18:41:00.028Z,23.70
2018-08-09T18:43:29.784Z,23.60
2018-08-09T18:45:59.696Z,23.40
2018-08-09T18:48:29.424Z,23.20
2018-08-09T18:50:59.252Z,23.00
2018-08-09T18:53:29.036Z,22.90
2018-08-09T18:55:59.095Z,22.80
2018-08-09T18:58:28.817Z,22.60
2018-08-09T19:00:58.720Z,22.60
2018-08-09T19:03:28.432Z,22.40
2018-08-09T19:05:58.277Z,22.30
2018-08-09T19:08:28.036Z,22.20
2018-08-09T19:10:57.777Z,22.10
2018-08-09T19:13:27.615Z,22.00
2018-08-09T19:15:57.427Z,21.90
2018-08-09T19:18:27.146Z,21.80
2018-08-09T19:21:10.120Z,21.70
2018-08-09T19:23:44.479Z,21.70
2018-08-09T19:26:14.260Z,21.60
2018-08-09T19:28:43.939Z,21.50
2018-08-09T19:31:13.792Z,21.50
2018-08-09T19:33:44.044Z,21.40
2018-08-09T19:36:13.771Z,21.40
2018-08-09T19:38:44.108Z,21.40
2018-08-09T19:41:13.901Z,21.40
2018-08-09T19:43:43.655Z,21.30
2018-08-09T19:46:13.924Z,21.20
2018-08-09T19:48:43.660Z,21.10
2018-08-09T19:51:13.419Z,21.10
2018-08-09T19:53:43.621Z,21.00
2018-08-09T19:56:13.341Z,21.00
2018-08-09T19:58:43.109Z,20.90
2018-08-09T20:01:13.258Z,20.80
2018-08-09T20:03:43.256Z,20.80
2018-08-09T20:06:13.197Z,20.70
2018-08-09T20:08:43.304Z,20.70
2018-08-09T20:11:13.099Z,20.70
2018-08-09T20:13:43.001Z,20.70
2018-08-09T20:16:12.794Z,20.60
2018-08-09T20:18:42.469Z,20.60
2018-08-09T20:21:12.556Z,20.50
2018-08-09T20:23:42.337Z,20.50
2018-08-09T20:26:12.260Z,20.60
2018-08-09T20:28:42.000Z,20.60
2018-08-09T20:31:11.704Z,20.60
2018-08-09T20:33:41.635Z,20.60
2018-08-09T20:36:11.341Z,20.60
2018-08-09T20:38:41.448Z,20.50
2018-08-09T20:41:12.513Z,20.50
2018-08-09T20:43:42.245Z,20.50
2018-08-09T20:49:19.640Z,20.50
2018-08-09T20:51:57.816Z,20.40
2018-08-09T20:54:28.087Z,20.40
2018-08-09T20:56:57.896Z,20.40
2018-08-09T20:59:27.640Z,20.40
2018-08-09T21:01:57.795Z,20.40
2018-08-09T21:04:27.544Z,20.40
2018-08-09T21:06:57.854Z,20.30
2018-08-09T21:09:28.041Z,20.40
2018-08-09T21:11:57.762Z,20.40
2018-08-09T21:14:27.754Z,20.40
2018-08-09T21:16:57.452Z,20.30
2018-08-09T21:19:27.504Z,20.30
2018-08-09T21:21:57.264Z,20.30
2018-08-09T21:24:27.020Z,20.40
2018-08-09T21:26:57.456Z,20.40
2018-08-09T21:29:27.340Z,20.40
2018-08-09T21:31:57.078Z,20.50
2018-08-09T21:34:27.168Z,20.50
2018-08-09T21:36:56.892Z,20.60
2018-08-09T21:39:26.617Z,20.60
2018-08-09T21:41:56.804Z,20.60
2018-08-09T21:44:26.536Z,20.60
2018-08-09T21:46:56.261Z,20.60
2018-08-09T21:49:26.480Z,20.60
2018-08-09T21:51:56.333Z,20.60
2018-08-09T21:54:26.329Z,20.60
2018-08-09T21:56:56.092Z,20.60
2018-08-09T21:59:26.993Z,20.60
2018-08-09T22:01:57.302Z,20.60
2018-08-09T22:04:27.820Z,20.60
2018-08-09T22:07:02.753Z,20.60
2018-08-09T22:09:37.796Z,20.60
2018-08-09T22:12:16.596Z,20.60
2018-08-09T22:14:51.947Z,20.60
2018-08-09T22:17:26.689Z,20.60
2018-08-09T22:20:01.421Z,20.60
2018-08-09T22:22:32.185Z,20.60
2018-08-09T22:25:01.888Z,20.50
2018-08-09T22:27:31.650Z,20.50
2018-08-09T22:30:01.848Z,20.60
2018-08-09T22:32:31.642Z,20.70
2018-08-09T22:35:01.668Z,20.70
2018-08-09T22:37:32.205Z,20.80
2018-08-09T22:40:02.608Z,20.80
2018-08-09T22:42:32.736Z,20.80
2018-08-09T22:45:06.296Z,20.80
2018-08-09T22:47:36.949Z,20.90
2018-08-09T22:50:07.050Z,20.90
2018-08-09T22:52:37.325Z,21.10
2018-08-09T22:55:07.088Z,21.20
2018-08-09T22:57:36.772Z,21.40
2018-08-09T23:00:11.429Z,21.50
2018-08-09T23:02:41.155Z,21.40
2018-08-09T23:05:11.390Z,21.50
2018-08-09T23:07:41.405Z,21.40
2018-08-09T23:10:11.227Z,21.30
2018-08-09T23:12:42.032Z,21.20
2018-08-09T23:15:12.560Z,21.20
2018-08-09T23:17:42.349Z,21.10
2018-08-09T23:20:12.735Z,21.10
2018-08-09T23:22:42.720Z,21.00
2018-08-09T23:25:14.105Z,20.90
2018-08-09T23:27:44.396Z,20.90
2018-08-09T23:30:14.344Z,20.90
2018-08-09T23:32:44.192Z,20.80
2018-08-09T23:35:14.260Z,20.80
2018-08-09T23:37:44.399Z,20.80
2018-08-09T23:40:14.568Z,20.70
2018-08-09T23:42:45.046Z,20.70
2018-08-09T23:45:14.829Z,20.60
2018-08-09T23:47:44.752Z,20.50
2018-08-09T23:50:14.684Z,20.50
2018-08-09T23:52:44.836Z,20.50
2018-08-09T23:55:16.888Z,20.40
2018-08-09T23:57:47.112Z,20.30
